• Join FlightAware (Why Join?)
  • Login
  • US Flag 
11:35PM EDT


 

Airport Tracker/Info


-or-


 

Live Flight TrackerFlight Track Log ✈ RPA4907 ✈ 29-Jun-2013 ✈ KIAD - KALB

Flight Track Log - Related Links

Times and Time Zones

All times are in EDT time to prevent confusion due to time zone crossing. See the RPA4907 flight status page for this flight to view local times or setup timezone preferences in your user account.

Time Position Orientation Groundspeed Altitude Reporting Facility
EDT Latitude Longitude Course Direction KTS MPH feet Rate Location/Type
09:39AM 38.9667 -77.5333 North 197 227 1,900  Level Potomac TRACON
09:40AM 39.0167 -77.5667 333° Northwest 246 283 3,000 1,020 Climbing Potomac TRACON
09:41AM 39.0833 -77.5833 349° North 253 291 4,000 1,380 Climbing Potomac TRACON
09:42AM 39.3472 -77.4500 North  Level FlightAware Approximate
09:43AM 39.4507 -77.4500 North  Level FlightAware Approximate
09:43AM 39.2447 -77.5936 357° North 269 310 7,200  Level Washington Center
09:44AM 39.5542 -77.4500 North  Level FlightAware Approximate
09:44AM 39.3225 -77.5661 15° North 275 316 9,000  Level Washington Center
09:45AM 39.6576 -77.4500 North  Level FlightAware Approximate
09:45AM 39.4000 -77.5386 15° North 280 322 10,500  Level Washington Center
09:47AM 39.4817 -77.5114 14° North 285 328 11,800 1,320 Climbing Washington Center
09:49AM 39.6469 -77.4525 15° North 305 351 14,700 1,380 Climbing New York Center
09:50AM 39.7367 -77.4531 360° North 299 344 16,100 1,140 Climbing New York Center
09:51AM 39.8097 -77.4517 North 292 336 17,100 1,260 Climbing New York Center
09:52AM 39.9014 -77.4497 North 292 336 18,600 1,140 Climbing New York Center
09:53AM 39.9744 -77.4511 359° North 292 336 19,400 840 Climbing New York Center
09:54AM 40.0550 -77.4292 12° North 292 336 20,300 840 Climbing New York Center
09:55AM 40.1453 -77.3806 22° Northeast 307 353 21,200 840 Climbing New York Center
09:56AM 40.2083 -77.2942 46° Northeast 312 359 22,100 840 Climbing New York Center
09:57AM 40.2692 -77.2103 46° Northeast 312 359 22,900 780 Climbing New York Center
09:58AM 40.3492 -77.1578 27° Northeast 312 359 23,700 720 Climbing New York Center
09:59AM 40.4308 -77.1161 21° North 312 359 24,400 600 Climbing New York Center
10:00AM 40.5144 -77.0719 22° Northeast 312 359 25,000 240 Climbing New York Center
10:01AM 40.5961 -77.0247 24° Northeast 312 359 25,000  Level New York Center
10:02AM 40.6861 -76.9756 22° Northeast 324 373 25,000  Level New York Center
10:03AM 40.7786 -76.9236 23° Northeast 337 388 25,000  Level New York Center
10:04AM 40.8728 -76.8717 23° Northeast 350 403 25,000  Level New York Center
10:05AM 40.9694 -76.8169 23° Northeast 360 414 25,000  Level New York Center
10:06AM 41.0658 -76.7650 22° Northeast 365 420 25,000  Level New York Center
10:07AM 41.1603 -76.7100 24° Northeast 365 420 25,000  Level New York Center
10:08AM 41.2567 -76.6578 22° Northeast 365 420 25,000  Level New York Center
10:09AM 41.3425 -76.6100 23° Northeast 365 420 25,000  Level New York Center
10:10AM 41.4389 -76.5547 23° Northeast 365 420 25,000  Level New York Center
10:11AM 41.5333 -76.4992 24° Northeast 365 420 25,000  Level New York Center
10:12AM 41.6275 -76.4461 23° Northeast 360 414 25,000 -120 Level New York Center
10:14AM 41.8503 -76.3172 23° Northeast 360 414 24,700 -360 Descending Boston Center
10:15AM 41.9461 -76.2617 23° Northeast 360 414 24,000 -360 Descending Boston Center
10:16AM 42.0397 -76.2058 24° Northeast 360 414 24,000  Level Boston Center
10:17AM 42.1333 -76.1528 23° Northeast 360 414 24,000  Level Boston Center
10:18AM 42.2017 -76.0333 52° Northeast 349 402 24,000  Level Boston Center
10:19AM 42.2433 -75.8983 67° East 359 413 24,000 -660 Level Boston Center
10:20AM 42.2664 -75.7564 78° East 369 425 22,700 -1,740 Descending Boston Center
10:21AM 42.2831 -75.6142 81° East 375 432 20,600 600 Descending Boston Center
10:22AM 42.3014 -75.4747 80° East 380 437 24,000 -2,700 Climbing Boston Center
10:23AM 42.3217 -75.3353 79° East 380 437 15,200 -5,700 Descending Boston Center
10:24AM 42.3397 -75.1986 80° East 368 423 12,700 -2,100 Descending Boston Center
10:25AM 42.3636 -75.0703 76° East 368 423 11,100 -900 Descending Boston Center
10:26AM 42.4061 -74.9483 65° Northeast 358 412 11,000 -60 Descending Boston Center
10:27AM 42.4483 -74.8261 65° Northeast 353 406 11,000  Level Boston Center
10:28AM 42.4839 -74.7094 68° East 359 413 11,000  Level Boston Center
10:29AM 42.5217 -74.5953 66° East 366 421 11,000  Level Boston Center
10:29AM 42.5503 -74.5089 66° East 366 421 11,000 -780 Level Boston Center
10:31AM 42.5944 -74.3664 67° East 320 368 9,600 -1,320 Descending Boston Center
10:31AM 42.6211 -74.2686 70° East 307 353 8,400 -1,500 Descending Boston Center
10:32AM 42.6519 -74.1650 68° East 301 346 6,900 -1,500 Descending Boston Center
10:34AM 42.6889 -74.0756 61° Northeast 282 325 5,400 -1,500 Descending Boston Center
10:35AM 42.7581 -74.0294 26° Northeast 274 315 3,900 -1,200 Descending Boston Center
10:36AM 42.8211 -73.9914 24° Northeast 259 298 3,000 -600 Descending Boston Center
10:36AM 42.8444 -73.9750 27° Northeast 257 296 3,000 60 Level Boston Center
10:37AM 42.8994 -73.9111 40° Northeast 219 252 3,100 -360 Climbing Boston Center
10:38AM 42.8983 -73.8317 91° East 193 222 2,300 -840 Descending Boston Center